Time;durP1;ratioP1;P1;durP2;ratioP2;P2;SDS_P1;SDS_P2;PMS_P1;PMS_P2;Temp;Humidity;BMP_temperature;BMP_pressure;BME280_temperature;BME280_humidity;BME280_pressure;Samples;Min_cycle;Max_cycle;Signal;HPM_P1;HPM_P2
2024/01/02 00:01:53;;;;;;;228.40;123.40;;;;;;;5.14;96.95;99365.78;4893817;29;20044;-86
2024/01/02 00:04:39;;;;;;;240.70;125.38;;;;;;;5.15;96.70;99358.69;4901162;29;20044;-82
2024/01/02 00:07:25;;;;;;;239.70;126.07;;;;;;;5.16;96.79;99355.03;4887071;29;20040;-86
2024/01/02 00:10:10;;;;;;;227.77;123.82;;;;;;;5.13;96.81;99355.41;4901046;29;20049;-82
2024/01/02 00:12:58;;;;;;;249.45;132.13;;;;;;;5.15;96.75;99361.31;4891135;29;20499;-86
2024/01/02 00:15:45;;;;;;;231.75;124.40;;;;;;;5.13;96.30;99353.59;4894041;29;20049;-82
2024/01/02 00:18:31;;;;;;;221.93;119.47;;;;;;;5.12;96.52;99356.44;4893041;29;20049;-82
2024/01/02 00:21:17;;;;;;;217.48;117.15;;;;;;;5.09;96.91;99366.31;4901094;29;20044;-86
2024/01/02 00:24:03;;;;;;;231.48;122.90;;;;;;;5.07;96.46;99365.69;4886949;29;20490;-84
2024/01/02 00:26:49;;;;;;;221.18;113.80;;;;;;;5.05;96.93;99378.25;4886676;29;20048;-82
2024/01/02 00:29:34;;;;;;;202.02;105.00;;;;;;;4.95;96.85;99367.25;4900735;29;20044;-82
2024/01/02 00:32:23;;;;;;;183.52;102.22;;;;;;;4.93;97.05;99389.50;4886679;29;20060;-83
2024/01/02 00:35:09;;;;;;;187.63;99.95;;;;;;;4.91;96.66;99392.31;4901080;29;20052;-82
2024/01/02 00:37:55;;;;;;;172.40;88.53;;;;;;;4.87;96.90;99391.88;4900960;29;20395;-86
2024/01/02 00:40:47;;;;;;;154.75;79.75;;;;;;;4.85;97.18;99383.34;4879952;29;20047;-86
2024/01/02 00:43:32;;;;;;;157.35;78.82;;;;;;;4.88;96.78;99388.22;4900703;29;20052;-86
2024/01/02 00:46:18;;;;;;;160.65;80.03;;;;;;;4.91;96.91;99392.31;4887300;29;20064;-82
2024/01/02 00:49:04;;;;;;;171.52;86.00;;;;;;;4.93;97.22;99397.41;4892632;29;20079;-81
2024/01/02 00:51:49;;;;;;;175.52;90.10;;;;;;;4.92;96.93;99393.13;4886016;29;20047;-82
2024/01/02 00:54:35;;;;;;;180.75;94.38;;;;;;;4.91;97.03;99389.66;4900599;29;20513;-85
2024/01/02 00:57:20;;;;;;;172.75;92.03;;;;;;;4.95;97.27;99409.38;4878900;29;20085;-85
2024/01/02 01:00:07;;;;;;;170.90;89.35;;;;;;;4.94;96.90;99393.75;4902094;29;20064;-85
2024/01/02 01:02:52;;;;;;;186.45;93.03;;;;;;;4.97;97.12;99402.09;4887259;29;20514;-85
2024/01/02 01:05:38;;;;;;;171.43;89.15;;;;;;;4.95;97.12;99396.22;4900265;29;20048;-85
2024/01/02 01:08:23;;;;;;;153.93;84.47;;;;;;;4.98;97.32;99403.72;4900113;29;20044;-85
2024/01/02 01:11:09;;;;;;;156.52;85.10;;;;;;;5.02;97.35;99399.72;4900012;29;20149;-81
2024/01/02 01:13:55;;;;;;;164.65;83.00;;;;;;;5.01;97.00;99387.53;4885447;29;20056;-80
2024/01/02 01:16:40;;;;;;;171.23;93.97;;;;;;;4.98;97.07;99390.56;4899898;29;20056;-82
2024/01/02 01:19:26;;;;;;;165.50;90.55;;;;;;;5.03;97.11;99396.06;4899781;29;20051;-81
2024/01/02 01:22:11;;;;;;;160.95;92.47;;;;;;;5.01;97.38;99387.53;4886053;29;20059;-81
2024/01/02 01:24:57;;;;;;;134.00;73.82;;;;;;;5.01;97.21;99391.97;4892181;29;20534;-81
2024/01/02 01:27:44;;;;;;;140.50;76.78;;;;;;;5.05;97.17;99391.44;4892066;29;20051;-81
2024/01/02 01:30:29;;;;;;;142.02;77.57;;;;;;;5.08;97.13;99393.69;4891605;29;20055;-86
2024/01/02 01:33:15;;;;;;;131.43;75.53;;;;;;;5.08;97.07;99396.31;4899777;29;20502;-86
2024/01/02 01:36:00;;;;;;;136.63;80.28;;;;;;;5.09;97.33;99400.56;4878754;29;20430;-81
2024/01/02 01:38:47;;;;;;;125.60;70.38;;;;;;;5.10;97.70;99399.56;4891817;29;20056;-85
2024/01/02 01:41:32;;;;;;;130.38;69.68;;;;;;;5.12;97.18;99399.38;4891534;29;20055;-82
2024/01/02 01:44:17;;;;;;;126.07;66.78;;;;;;;5.08;96.96;99398.94;4899273;29;20083;-82
2024/01/02 01:47:04;;;;;;;124.40;65.95;;;;;;;5.10;96.94;99390.84;4891558;29;20048;-83
2024/01/02 01:49:49;;;;;;;125.28;66.97;;;;;;;5.11;96.95;99395.13;4891366;29;20055;-85
2024/01/02 01:52:35;;;;;;;129.70;68.47;;;;;;;5.13;96.92;99392.28;4899147;29;20056;-85
2024/01/02 01:55:20;;;;;;;124.50;65.18;;;;;;;5.14;96.71;99388.63;4899115;29;20055;-85
2024/01/02 01:58:06;;;;;;;116.82;62.28;;;;;;;5.14;97.05;99386.00;4878221;29;20540;-81
2024/01/02 02:00:52;;;;;;;134.98;66.40;;;;;;;5.12;96.97;99383.56;4878312;29;20550;-85
2024/01/02 02:03:37;;;;;;;113.38;58.65;;;;;;;5.07;96.89;99381.50;4878274;29;20056;-85
2024/01/02 02:06:23;;;;;;;109.50;61.78;;;;;;;5.13;97.15;99381.75;4878404;29;20499;-81
2024/01/02 02:09:08;;;;;;;109.95;56.45;;;;;;;5.14;97.12;99391.28;4890837;29;20055;-81
2024/01/02 02:11:54;;;;;;;111.10;58.08;;;;;;;5.12;96.64;99385.41;4891123;29;20043;-85
2024/01/02 02:14:39;;;;;;;129.93;62.28;;;;;;;5.11;97.27;99381.97;4898716;29;20075;-84
2024/01/02 02:17:28;;;;;;;143.82;69.80;;;;;;;5.09;96.69;99379.50;4898817;29;20055;-81
2024/01/02 02:20:14;;;;;;;112.68;58.28;;;;;;;5.06;96.76;99379.88;4891038;29;20514;-80
2024/01/02 02:23:00;;;;;;;107.50;56.15;;;;;;;5.11;96.56;99379.31;4891163;29;20051;-80
2024/01/02 02:25:45;;;;;;;114.35;60.05;;;;;;;5.07;96.70;99381.50;4891119;29;20395;-84
2024/01/02 02:28:30;;;;;;;105.07;54.88;;;;;;;5.07;97.17;99386.75;4899322;29;20071;-81
2024/01/02 02:31:19;;;;;;;98.32;50.65;;;;;;;5.08;96.87;99393.69;4898720;29;20060;-85
2024/01/02 02:34:04;;;;;;;82.35;46.42;;;;;;;5.09;96.54;99390.03;4890955;29;20075;-85
2024/01/02 02:36:51;;;;;;;86.95;46.60;;;;;;;5.12;96.57;99393.31;4890823;29;20048;-85
2024/01/02 02:39:36;;;;;;;96.32;49.17;;;;;;;5.10;96.86;99388.22;4890862;29;20055;-85
2024/01/02 02:42:21;;;;;;;95.28;49.88;;;;;;;5.08;96.62;99385.78;4898679;29;20056;-84
2024/01/02 02:45:07;;;;;;;96.15;46.38;;;;;;;5.07;96.93;99380.69;4890762;29;20068;-85
2024/01/02 02:47:53;;;;;;;76.43;41.85;;;;;;;5.04;97.14;99389.78;4890819;29;20060;-81
2024/01/02 02:50:38;;;;;;;91.45;46.55;;;;;;;5.00;96.91;99385.09;4898701;29;20064;-82
2024/01/02 02:53:24;;;;;;;96.57;47.40;;;;;;;4.98;96.57;99384.47;4890593;29;20055;-82
2024/01/02 02:56:15;;;;;;;84.22;44.17;;;;;;;4.97;97.10;99386.28;4890641;29;20059;-80
2024/01/02 02:59:02;;;;;;;77.68;41.42;;;;;;;4.95;96.70;99390.94;4898883;29;20126;-80
2024/01/02 03:01:46;;;;;;;69.47;38.78;;;;;;;4.96;96.96;99397.03;4890827;29;20055;-82
2024/01/02 03:04:34;;;;;;;63.90;36.25;;;;;;;4.97;97.18;99403.91;4898545;29;20075;-84
2024/01/02 03:07:20;;;;;;;74.95;39.10;;;;;;;4.94;97.00;99397.19;4898519;29;20506;-82
2024/01/02 03:10:06;;;;;;;72.22;36.92;;;;;;;4.94;96.98;99397.19;4898244;29;20064;-85
2024/01/02 03:12:51;;;;;;;68.75;38.03;;;;;;;4.95;96.79;99395.38;4898345;29;20060;-85
2024/01/02 03:15:37;;;;;;;84.95;46.28;;;;;;;4.93;96.90;99398.22;4898443;29;20071;-81
2024/01/02 03:18:23;;;;;;;103.97;52.33;;;;;;;4.92;96.88;99393.13;4904920;29;20059;-85
2024/01/02 03:21:10;;;;;;;101.85;49.78;;;;;;;4.92;96.97;99399.22;4902198;29;20063;-82
2024/01/02 03:23:55;;;;;;;115.40;56.58;;;;;;;4.93;96.66;99400.84;4888759;29;20497;-85
2024/01/02 03:26:41;;;;;;;108.90;54.00;;;;;;;4.94;96.99;99393.75;4907511;29;20065;-79
2024/01/02 03:29:27;;;;;;;114.82;56.53;;;;;;;4.92;97.07;99401.84;4917605;29;20055;-81
2024/01/02 03:32:13;;;;;;;119.30;56.00;;;;;;;4.91;97.34;99397.56;4924682;29;20059;-81
2024/01/02 03:34:58;;;;;;;81.47;41.85;;;;;;;4.91;97.09;99407.28;4915420;29;20056;-81
2024/01/02 03:37:44;;;;;;;79.57;40.67;;;;;;;4.88;97.09;99400.56;4908180;29;20114;-85
2024/01/02 03:40:31;;;;;;;69.35;39.58;;;;;;;4.88;96.88;99398.75;4902550;29;20576;-85
2024/01/02 03:43:16;;;;;;;72.38;40.92;;;;;;;4.91;97.02;99397.56;4876136;29;20518;-85
2024/01/02 03:46:01;;;;;;;61.78;35.58;;;;;;;4.87;97.12;99401.59;4902810;29;20048;-85
2024/01/02 03:48:46;;;;;;;64.57;34.15;;;;;;;4.90;96.92;99403.84;4901937;29;20403;-84
2024/01/02 03:51:33;;;;;;;68.40;34.75;;;;;;;4.87;97.42;99402.41;4909130;29;20509;-80
2024/01/02 03:54:19;;;;;;;65.93;33.25;;;;;;;4.84;96.83;99396.69;4905308;29;20060;-85
2024/01/02 03:57:04;;;;;;;59.78;31.45;;;;;;;4.82;97.27;99404.78;4905186;29;20051;-81
2024/01/02 03:59:49;;;;;;;63.85;34.42;;;;;;;4.81;96.77;99397.06;4894568;29;20052;-86
2024/01/02 04:02:34;;;;;;;68.78;34.95;;;;;;;4.82;97.13;99401.31;4887409;29;20395;-85
2024/01/02 04:05:20;;;;;;;65.20;34.25;;;;;;;4.81;96.98;99397.06;4907470;29;20048;-85
2024/01/02 04:08:07;;;;;;;67.55;35.80;;;;;;;4.80;96.93;99388.38;4907444;29;20114;-85
2024/01/02 04:10:52;;;;;;;60.78;32.50;;;;;;;4.80;97.19;99382.28;4900926;29;20064;-80
2024/01/02 04:13:38;;;;;;;56.30;30.55;;;;;;;4.78;97.07;99381.66;4900937;29;20076;-82
2024/01/02 04:16:23;;;;;;;58.22;29.60;;;;;;;4.74;97.00;99385.69;4901297;29;20067;-80
2024/01/02 04:19:09;;;;;;;54.80;30.98;;;;;;;4.75;97.40;99382.84;4901045;29;20068;-82
2024/01/02 04:21:55;;;;;;;67.57;34.33;;;;;;;4.74;97.13;99378.59;4900857;29;20052;-82
2024/01/02 04:24:40;;;;;;;58.05;32.28;;;;;;;4.75;96.67;99379.41;4901365;29;20061;-80
2024/01/02 04:27:26;;;;;;;60.42;32.00;;;;;;;4.72;97.06;99387.66;4900803;29;20056;-82
2024/01/02 04:30:11;;;;;;;53.70;32.65;;;;;;;4.66;96.96;99389.22;4900744;29;20060;-81
2024/01/02 04:32:57;;;;;;;57.03;32.85;;;;;;;4.69;97.25;99382.78;4900784;29;20059;-86
2024/01/02 04:35:42;;;;;;;68.75;34.83;;;;;;;4.66;97.14;99386.59;4900732;29;20064;-81
2024/01/02 04:38:28;;;;;;;65.80;35.63;;;;;;;4.68;97.26;99392.50;4900724;29;20051;-85
2024/01/02 04:41:13;;;;;;;72.82;39.95;;;;;;;4.70;97.30;99387.03;4886502;29;20047;-85
2024/01/02 04:44:00;;;;;;;91.63;46.63;;;;;;;4.68;97.09;99378.53;4900451;29;20047;-85
2024/01/02 04:46:46;;;;;;;79.50;42.58;;;;;;;4.71;97.09;99383.41;4900500;29;20063;-82
2024/01/02 04:49:31;;;;;;;65.07;38.53;;;;;;;4.74;97.04;99390.94;4907004;29;20099;-82
2024/01/02 04:52:17;;;;;;;69.72;36.47;;;;;;;4.74;97.41;99396.19;4900279;29;20395;-81
2024/01/02 04:55:03;;;;;;;69.05;36.33;;;;;;;4.69;96.98;99390.66;4900673;29;20052;-81
2024/01/02 04:57:48;;;;;;;66.90;35.22;;;;;;;4.70;97.26;99385.25;4900558;29;20134;-81
2024/01/02 05:00:34;;;;;;;64.05;35.53;;;;;;;4.71;97.20;99391.31;4900320;29;20051;-81
2024/01/02 05:03:20;;;;;;;67.45;36.08;;;;;;;4.70;97.01;99381.75;4900158;29;20051;-81
2024/01/02 05:06:05;;;;;;;66.88;36.47;;;;;;;4.68;96.96;99379.34;4893098;29;20052;-84
2024/01/02 05:08:50;;;;;;;67.85;36.05;;;;;;;4.69;97.05;99378.31;4907347;29;20059;-80
2024/01/02 05:11:38;;;;;;;68.95;37.58;;;;;;;4.68;97.30;99379.34;4907172;29;20048;-81
2024/01/02 05:14:24;;;;;;;114.35;55.85;;;;;;;4.71;97.03;99388.69;4906455;29;20079;-84
2024/01/02 05:17:09;;;;;;;95.20;47.80;;;;;;;4.72;97.37;99382.41;4906881;29;20048;-81
2024/01/02 05:19:55;;;;;;;81.25;42.38;;;;;;;4.72;97.35;99383.22;4906855;29;20071;-81
2024/01/02 05:22:40;;;;;;;68.07;37.40;;;;;;;4.70;97.25;99379.97;4907360;29;20051;-84
2024/01/02 05:25:26;;;;;;;64.63;35.55;;;;;;;4.74;97.22;99394.38;4891874;29;20051;-84
2024/01/02 05:28:11;;;;;;;52.50;31.40;;;;;;;4.73;97.26;99389.28;4879576;29;20060;-86
2024/01/02 05:30:57;;;;;;;49.00;28.50;;;;;;;4.76;96.90;99400.25;4891851;29;20400;-84
2024/01/02 05:33:43;;;;;;;50.60;28.40;;;;;;;4.78;97.05;99397.44;4900089;29;20055;-85
2024/01/02 05:36:28;;;;;;;49.97;27.23;;;;;;;4.79;97.24;99393.81;4899774;29;20495;-84
2024/01/02 05:39:14;;;;;;;51.78;28.38;;;;;;;4.80;97.00;99401.53;4899419;29;20519;-81
2024/01/02 05:41:59;;;;;;;42.42;26.95;;;;;;;4.79;97.14;99405.16;4899131;29;20047;-80
2024/01/02 05:44:45;;;;;;;36.08;23.77;;;;;;;4.80;97.24;99406.81;4899885;29;20051;-81
2024/01/02 05:47:31;;;;;;;42.10;25.45;;;;;;;4.77;97.19;99404.53;4899574;29;20059;-81
2024/01/02 05:50:16;;;;;;;35.33;21.85;;;;;;;4.82;96.60;99409.22;4885158;29;20063;-85
2024/01/02 05:53:02;;;;;;;20.45;13.73;;;;;;;4.85;97.00;99395.69;4899344;29;20064;-84
2024/01/02 05:55:47;;;;;;;17.60;11.77;;;;;;;4.88;96.88;99392.69;4899380;29;20056;-81
2024/01/02 05:58:33;;;;;;;16.30;11.02;;;;;;;4.92;96.43;99393.13;4899367;29;20076;-85
2024/01/02 06:01:19;;;;;;;9.77;7.32;;;;;;;4.97;96.23;99399.44;4899424;29;20051;-87
2024/01/02 06:04:04;;;;;;;16.77;10.63;;;;;;;4.98;96.34;99397.63;4885432;29;20588;-88
2024/01/02 06:06:50;;;;;;;16.15;10.55;;;;;;;5.02;95.78;99398.91;4899532;29;20055;-84
2024/01/02 06:09:35;;;;;;;20.52;11.98;;;;;;;5.01;95.89;99402.50;4899068;29;20051;-81
2024/01/02 06:12:21;;;;;;;18.17;10.65;;;;;;;5.01;96.03;99392.78;4898764;29;20056;-81
2024/01/02 06:15:07;;;;;;;30.05;16.30;;;;;;;4.98;95.83;99401.09;4899306;29;20075;-84
2024/01/02 06:17:52;;;;;;;39.70;23.13;;;;;;;4.93;95.76;99398.22;4899327;29;20124;-84
2024/01/02 06:20:38;;;;;;;35.30;21.25;;;;;;;4.93;95.41;99408.75;4898980;29;20391;-81
2024/01/02 06:23:25;;;;;;;33.67;20.60;;;;;;;4.95;95.61;99412.00;4899451;29;20051;-81
2024/01/02 06:26:10;;;;;;;33.83;21.38;;;;;;;4.98;94.99;99421.31;4872349;29;20072;-81
2024/01/02 06:28:55;;;;;;;38.78;22.58;;;;;;;4.98;94.99;99413.44;4899244;29;20056;-81
2024/01/02 06:31:41;;;;;;;44.13;25.25;;;;;;;5.00;94.76;99421.97;4898541;29;20075;-83
2024/01/02 06:34:27;;;;;;;53.33;29.58;;;;;;;4.96;95.30;99436.53;4898609;29;20072;-81
2024/01/02 06:37:12;;;;;;;56.67;33.20;;;;;;;4.96;95.12;99441.78;4899197;29;20047;-82
2024/01/02 06:39:58;;;;;;;59.13;34.45;;;;;;;4.94;95.15;99439.34;4899339;29;20067;-81
2024/01/02 06:42:44;;;;;;;61.58;35.10;;;;;;;4.96;95.60;99434.69;4899287;29;20502;-83
2024/01/02 06:45:29;;;;;;;70.88;39.67;;;;;;;5.01;95.33;99445.47;4891171;29;20059;-85
2024/01/02 06:48:15;;;;;;;75.90;42.75;;;;;;;5.00;95.62;99443.03;4898899;29;20075;-86
2024/01/02 06:51:00;;;;;;;62.05;36.35;;;;;;;5.05;95.42;99446.75;4898733;29;20519;-80
2024/01/02 06:53:46;;;;;;;59.55;35.80;;;;;;;5.09;95.55;99455.91;4905570;29;20379;-85
2024/01/02 06:56:32;;;;;;;61.95;35.60;;;;;;;5.16;95.20;99452.50;4902925;29;20047;-82
2024/01/02 06:59:18;;;;;;;54.80;28.83;;;;;;;5.08;94.79;99451.63;4909533;29;20063;-80
2024/01/02 07:02:04;;;;;;;74.43;38.92;;;;;;;5.15;94.92;99450.88;4914820;29;20052;-85
2024/01/02 07:04:49;;;;;;;95.25;47.17;;;;;;;5.20;94.81;99454.59;4906153;29;20059;-85
2024/01/02 07:07:35;;;;;;;73.75;41.90;;;;;;;5.24;94.79;99468.19;4903569;29;20051;-85
2024/01/02 07:10:20;;;;;;;66.45;34.45;;;;;;;5.24;94.73;99462.94;4905509;29;20059;-86
2024/01/02 07:13:07;;;;;;;63.25;34.63;;;;;;;5.31;94.77;99464.59;4903225;29;20076;-85
2024/01/02 07:15:52;;;;;;;57.88;33.28;;;;;;;5.30;94.52;99470.06;4902573;29;20055;-84
2024/01/02 07:18:38;;;;;;;61.13;34.80;;;;;;;5.27;94.14;99462.56;4895430;29;20048;-84
2024/01/02 07:21:23;;;;;;;66.40;35.65;;;;;;;5.29;93.99;99468.44;4889107;29;20056;-84
2024/01/02 07:24:09;;;;;;;66.35;37.70;;;;;;;5.25;94.38;99467.19;4902400;29;20415;-80
2024/01/02 07:26:55;;;;;;;71.97;40.50;;;;;;;5.22;94.17;99468.38;4902152;29;20071;-81
2024/01/02 07:29:40;;;;;;;69.63;39.75;;;;;;;5.18;94.65;99461.84;4902068;29;20052;-85
2024/01/02 07:32:26;;;;;;;87.82;47.17;;;;;;;5.12;94.86;99462.63;4901685;29;20056;-84
2024/01/02 07:35:11;;;;;;;98.82;49.22;;;;;;;5.07;94.80;99462.34;4903252;29;20063;-85
2024/01/02 07:37:58;;;;;;;107.25;59.47;;;;;;;5.02;94.71;99457.66;4887428;29;20063;-80
2024/01/02 07:40:44;;;;;;;103.93;60.33;;;;;;;4.94;94.84;99455.13;4902348;29;20055;-80
2024/01/02 07:43:30;;;;;;;119.35;59.85;;;;;;;4.87;94.72;99449.81;4896093;29;20613;-86
2024/01/02 07:46:16;;;;;;;90.00;48.30;;;;;;;4.78;95.00;99437.75;4902109;29;20403;-82
2024/01/02 07:49:03;;;;;;;93.70;49.25;;;;;;;4.72;95.06;99442.94;4902479;29;20391;-82
2024/01/02 07:51:51;;;;;;;91.20;50.33;;;;;;;4.84;94.92;99444.91;4894272;29;20070;-87
2024/01/02 07:54:38;;;;;;;76.90;43.40;;;;;;;5.09;94.88;99445.34;4894343;29;20060;-88
2024/01/02 07:57:25;;;;;;;82.93;44.42;;;;;;;5.36;94.67;99439.50;4894526;29;20517;-88
2024/01/02 08:00:10;;;;;;;80.00;46.00;;;;;;;5.69;94.08;99447.66;4903223;29;20435;-87
2024/01/02 08:02:58;;;;;;;69.78;40.92;;;;;;;5.92;94.34;99431.56;4901457;29;20222;-81
2024/01/02 08:05:44;;;;;;;74.82;41.88;;;;;;;6.18;94.02;99438.88;4901928;29;20510;-87
2024/01/02 08:08:29;;;;;;;72.32;40.85;;;;;;;6.39;93.47;99433.47;4887766;29;20062;-82
2024/01/02 08:11:16;;;;;;;57.42;33.25;;;;;;;6.50;92.63;99429.44;4889957;29;20072;-82
2024/01/02 08:14:02;;;;;;;57.33;32.50;;;;;;;6.72;91.70;99427.47;4901500;29;20063;-83
2024/01/02 08:16:48;;;;;;;35.17;22.63;;;;;;;6.81;90.52;99423.63;4887151;29;20059;-83
2024/01/02 08:19:34;;;;;;;52.97;30.48;;;;;;;6.86;88.88;99421.22;4887339;29;20051;-82
2024/01/02 08:22:20;;;;;;;39.13;24.33;;;;;;;6.93;87.59;99431.78;4893591;29;20387;-83
2024/01/02 08:25:05;;;;;;;43.05;26.20;;;;;;;7.13;86.95;99435.25;4893578;29;20067;-82
2024/01/02 08:27:51;;;;;;;36.97;21.92;;;;;;;7.15;85.93;99443.00;4901126;29;20059;-85
2024/01/02 08:30:36;;;;;;;36.45;21.27;;;;;;;7.27;84.76;99444.03;4901019;29;20051;-83
2024/01/02 08:33:22;;;;;;;36.40;21.92;;;;;;;7.41;84.92;99452.78;4911618;29;20404;-88
2024/01/02 08:36:10;;;;;;;33.08;19.30;;;;;;;7.38;83.52;99456.63;4895821;29;20072;-83
2024/01/02 08:38:56;;;;;;;34.78;22.17;;;;;;;7.40;82.67;99444.03;4901009;29;20059;-78
2024/01/02 08:41:42;;;;;;;36.95;22.00;;;;;;;7.73;83.25;99453.75;4908172;29;20059;-77
2024/01/02 08:44:27;;;;;;;33.80;20.55;;;;;;;7.79;81.95;99445.00;4903493;29;20055;-79
2024/01/02 08:47:13;;;;;;;30.77;19.45;;;;;;;7.83;81.47;99451.53;4900656;29;20055;-76
2024/01/02 08:49:58;;;;;;;36.08;21.67;;;;;;;7.77;81.08;99449.72;4901843;29;20604;-75
2024/01/02 08:52:47;;;;;;;27.63;16.52;;;;;;;7.46;79.93;99452.16;4900568;29;20059;-78
2024/01/02 08:55:34;;;;;;;22.35;13.73;;;;;;;7.29;80.61;99452.56;4900506;29;20399;-77
2024/01/02 08:58:19;;;;;;;27.30;16.35;;;;;;;7.35;81.08;99443.00;4907427;29;20461;-77
2024/01/02 09:01:10;;;;;;;31.70;20.38;;;;;;;7.45;82.62;99439.94;4901049;29;20055;-77
2024/01/02 09:03:55;;;;;;;32.35;20.25;;;;;;;7.82;80.59;99439.31;4900431;29;20059;-79
2024/01/02 09:06:41;;;;;;;29.05;20.38;;;;;;;7.72;80.81;99438.13;4900839;29;20395;-80
2024/01/02 09:09:26;;;;;;;43.88;25.92;;;;;;;7.76;81.19;99426.91;4891178;29;20395;-81
2024/01/02 09:12:37;;;;;;;36.80;24.50;;;;;;;7.86;81.08;99424.63;4894329;29;20507;-83
2024/01/02 09:15:23;;;;;;;29.95;19.85;;;;;;;7.92;80.86;99420.34;4919388;29;20063;-80
2024/01/02 09:18:08;;;;;;;43.60;25.13;;;;;;;7.91;79.56;99428.50;4902758;29;20048;-81
2024/01/02 09:20:54;;;;;;;28.00;18.15;;;;;;;7.90;79.48;99430.34;4902224;29;20051;-80
2024/01/02 09:23:39;;;;;;;40.75;26.35;;;;;;;8.02;79.01;99423.41;4901494;29;20512;-77
2024/01/02 09:26:25;;;;;;;35.78;19.38;;;;;;;8.14;78.13;99435.97;4901146;29;20051;-80
2024/01/02 09:29:11;;;;;;;28.55;17.65;;;;;;;8.25;79.05;99422.91;4907604;29;20079;-78
2024/01/02 09:31:56;;;;;;;26.80;17.40;;;;;;;8.21;78.60;99415.56;4901056;29;20514;-83
2024/01/02 09:34:41;;;;;;;29.25;19.30;;;;;;;8.37;78.46;99412.47;4900569;29;20055;-82
2024/01/02 09:37:27;;;;;;;26.42;17.63;;;;;;;8.19;77.71;99412.34;4900415;29;20055;-78
2024/01/02 09:40:46;;;;;;;26.15;17.45;;;;;;;8.33;77.61;99406.75;4901751;29;20048;-77
2024/01/02 09:43:45;;;;;;;26.90;18.67;;;;;;;8.53;76.47;99397.97;4907962;29;20052;-80
2024/01/02 09:46:33;;;;;;;19.90;13.65;;;;;;;8.56;75.43;99392.25;4900581;29;20056;-76
2024/01/02 09:49:26;;;;;;;20.85;13.93;;;;;;;8.37;76.07;99388.66;4894003;29;20048;-80
2024/01/02 09:52:27;;;;;;;21.73;14.32;;;;;;;7.93;78.65;99369.06;4908465;29;20055;-85
2024/01/02 09:55:34;;;;;;;31.75;19.63;;;;;;;8.09;79.98;99373.91;4902279;29;20521;-88
2024/01/02 09:58:35;;;;;;;28.20;16.65;;;;;;;7.80;80.36;99374.38;4903102;29;20067;-87
2024/01/02 10:01:28;;;;;;;34.75;20.15;;;;;;;7.53;82.88;99374.44;4888391;29;20415;-88
2024/01/02 10:04:48;;;;;;;30.47;19.00;;;;;;;7.54;81.84;99375.25;4892726;29;20072;-86
2024/01/02 10:07:42;;;;;;;27.55;17.20;;;;;;;7.44;81.22;99369.59;4900047;29;20055;-85
2024/01/02 10:10:36;;;;;;;23.55;14.57;;;;;;;7.55;80.65;99368.94;4886364;29;20482;-85
2024/01/02 10:13:27;;;;;;;27.65;16.77;;;;;;;7.77;80.25;99366.84;4900560;29;20055;-81
2024/01/02 10:16:27;;;;;;;17.90;11.98;;;;;;;7.76;77.99;99352.81;4873641;29;20118;-81
2024/01/02 10:19:40;;;;;;;14.85;7.57;;;;;;;7.60;78.72;99351.44;4885098;29;20056;-84
2024/01/02 10:22:33;;;;;;;20.58;13.32;;;;;;;7.61;79.58;99346.97;4899573;29;20052;-80
2024/01/02 10:25:20;;;;;;;20.00;11.75;;;;;;;7.60;78.84;99342.69;4891253;29;20522;-79
2024/01/02 10:28:25;;;;;;;17.45;12.15;;;;;;;7.84;78.47;99323.50;4871750;29;20407;-79
2024/01/02 10:31:40;;;;;;;25.70;16.17;;;;;;;7.74;79.34;99320.50;4898523;29;20121;-82
2024/01/02 10:34:35;;;;;;;22.83;10.27;;;;;;;7.67;79.13;99317.03;4898933;29;20059;-80
2024/01/02 10:37:25;;;;;;;22.05;13.68;;;;;;;7.76;79.21;99317.63;4884945;29;20056;-80
2024/01/02 10:40:23;;;;;;;24.45;14.30;;;;;;;7.77;78.60;99306.84;4872305;29;20047;-78
2024/01/02 10:43:24;;;;;;;25.15;15.43;;;;;;;7.92;78.78;99311.84;4885465;29;20048;-84
2024/01/02 10:46:49;;;;;;;29.95;14.30;;;;;;;7.98;78.31;99304.91;4898095;29;20055;-84
2024/01/02 10:49:45;;;;;;;22.38;13.55;;;;;;;7.87;78.60;99301.91;4899100;29;20051;-83
2024/01/02 10:53:02;;;;;;;23.55;15.05;;;;;;;8.10;78.76;99297.94;4891041;29;20092;-78
2024/01/02 10:55:49;;;;;;;20.27;12.70;;;;;;;8.06;77.26;99291.44;4904869;29;20052;-80
2024/01/02 10:58:47;;;;;;;21.67;13.80;;;;;;;8.18;76.30;99284.47;4885360;29;20060;-82
2024/01/02 11:01:37;;;;;;;21.58;13.10;;;;;;;8.03;77.03;99282.09;4884583;29;20529;-82
2024/01/02 11:04:41;;;;;;;25.20;14.43;;;;;;;8.33;77.65;99281.50;4890901;29;20059;-82
2024/01/02 11:07:34;;;;;;;19.13;13.48;;;;;;;8.48;76.55;99279.41;4884720;29;20075;-79
2024/01/02 11:10:23;;;;;;;21.52;13.95;;;;;;;8.39;77.00;99266.63;4890963;29;20162;-81
2024/01/02 11:13:12;;;;;;;21.92;13.35;;;;;;;8.37;77.34;99261.53;4884617;29;20392;-80
2024/01/02 11:16:02;;;;;;;26.45;14.38;;;;;;;8.50;76.39;99258.81;4884490;29;20051;-83
2024/01/02 11:18:50;;;;;;;30.38;17.38;;;;;;;8.50;77.46;99253.53;4898216;29;20392;-81
2024/01/02 11:21:55;;;;;;;24.83;13.73;;;;;;;8.29;77.86;99249.34;4898566;29;20055;-83
2024/01/02 11:24:47;;;;;;;21.38;13.85;;;;;;;8.41;77.04;99236.28;4890866;29;20059;-82
2024/01/02 11:27:37;;;;;;;21.63;12.05;;;;;;;8.29;76.93;99241.41;4886367;29;20059;-81
2024/01/02 11:30:25;;;;;;;22.83;13.35;;;;;;;8.28;76.87;99237.16;4906027;29;20056;-81
2024/01/02 11:33:31;;;;;;;21.60;12.75;;;;;;;8.32;76.83;99222.44;4901282;29;20060;-83
2024/01/02 11:36:27;;;;;;;22.13;14.27;;;;;;;8.48;76.40;99215.03;4899189;29;20052;-80
2024/01/02 11:39:22;;;;;;;22.73;13.25;;;;;;;8.46;76.31;99211.78;4888420;29;20055;-81
2024/01/02 11:42:43;;;;;;;22.35;13.32;;;;;;;8.60;75.33;99201.91;4881679;29;20048;-81
2024/01/02 11:45:34;;;;;;;20.60;11.98;;;;;;;8.73;73.88;99204.41;4904490;29;20051;-80
2024/01/02 11:48:32;;;;;;;18.75;11.85;;;;;;;8.75;74.22;99205.03;4906054;29;20134;-83
2024/01/02 11:51:23;;;;;;;22.13;11.43;;;;;;;8.71;74.26;99202.00;4905287;29;20075;-81
2024/01/02 11:54:35;;;;;;;23.52;12.15;;;;;;;8.77;74.42;99193.19;4889026;29;20104;-83
2024/01/02 11:57:30;;;;;;;20.45;11.75;;;;;;;8.88;73.13;99181.03;4888074;29;20059;-79
2024/01/02 12:00:24;;;;;;;20.30;10.50;;;;;;;8.97;72.18;99181.56;4903467;29;20064;-82
2024/01/02 12:04:00;;;;;;;17.65;10.13;;;;;;;9.01;72.15;99188.03;4901789;29;20051;-81
2024/01/02 12:06:57;;;;;;;15.77;9.95;;;;;;;8.92;71.80;99179.56;4891719;29;20060;-86
2024/01/02 12:10:02;;;;;;;19.13;11.90;;;;;;;8.98;71.39;99177.88;4894507;29;20055;-81
2024/01/02 12:12:53;;;;;;;19.90;11.13;;;;;;;9.00;71.72;99176.63;4900561;29;20052;-80
2024/01/02 12:15:45;;;;;;;16.15;8.65;;;;;;;9.20;69.51;99178.25;4900978;29;20059;-85
2024/01/02 12:18:39;;;;;;;18.15;9.73;;;;;;;9.02;70.01;99181.69;4887108;29;20055;-82
2024/01/02 12:21:27;;;;;;;18.88;10.25;;;;;;;9.04;71.07;99177.00;4887308;29;20067;-84
2024/01/02 12:24:16;;;;;;;16.02;10.43;;;;;;;9.25;70.12;99181.06;4893197;29;20122;-84
2024/01/02 12:27:03;;;;;;;21.55;11.50;;;;;;;9.27;70.55;99185.13;4887044;29;20514;-80
2024/01/02 12:29:51;;;;;;;23.55;12.43;;;;;;;9.36;70.12;99188.25;4900825;29;20055;-81
2024/01/02 12:32:47;;;;;;;20.00;12.27;;;;;;;9.38;71.33;99180.09;4886677;29;20056;-83
2024/01/02 12:35:39;;;;;;;23.35;13.05;;;;;;;9.41;69.78;99169.03;4886754;29;20527;-79
2024/01/02 12:38:28;;;;;;;22.70;13.30;;;;;;;9.40;69.12;99176.19;4901198;29;20055;-83
2024/01/02 12:41:27;;;;;;;22.17;12.93;;;;;;;9.37;69.51;99173.16;4907897;29;20051;-84
2024/01/02 12:44:14;;;;;;;26.30;16.13;;;;;;;9.47;70.80;99170.81;4901482;29;20051;-81
2024/01/02 12:47:09;;;;;;;24.27;15.65;;;;;;;9.58;70.90;99163.91;4902165;29;20060;-81
2024/01/02 12:50:03;;;;;;;23.70;16.33;;;;;;;9.65;70.50;99165.47;4906895;29;20074;-81
2024/01/02 12:52:59;;;;;;;23.95;15.25;;;;;;;9.57;71.29;99162.31;4900178;29;20052;-81
2024/01/02 12:55:55;;;;;;;20.60;14.23;;;;;;;9.51;71.16;99158.69;4886028;29;20218;-81
2024/01/02 12:58:41;;;;;;;21.90;13.88;;;;;;;9.54;70.25;99154.78;4886413;29;20060;-78
2024/01/02 13:01:27;;;;;;;18.50;12.30;;;;;;;9.62;71.35;99139.38;4906175;29;20064;-82
2024/01/02 13:04:16;;;;;;;21.92;13.80;;;;;;;9.70;70.67;99136.38;4900086;29;20052;-82